Mahlon Sweet Field Eugene US
ICAO: KEUG
IATA: EUG
Category: Medium
Scheduled Services: Yes

Elevation: 374 ft
TransAlt. 18000 ft.

Airport Communications:
CASCADE APP/DEP:119.6
ATIS:125.225
EUGENE CLNC DEL:121.7
CTAF:118.9
GND:121.7
MC MINNVILLE RDO:122.3
EUGENE TWR:118.9
UNICOM:122.95

KEUG Zoom In..

If you have problems with the map follow the link
https://www.worldairports.se/pages/airport.php?
ICAO=KEUG

Runways:

(A) RW 16L length 6000 ft width 150 ft
ILS 111.75 / hdg 163

(B) RW 16R length 8009 ft width 150 ft
ILS 110.10 / hdg 163

(C) RW 34L length 8009 ft width 150 ft
---- / hdg 343

(D) RW 34R length 6000 ft width 150 ft
---- / hdg 343

Location; KEUG
Day. 22 / Time. 12.16 Zulu
* Altimeter: 29.96
* Temperature: 03° c. 37.4°f.
* Wind from: 000° Speed 00 kn.
Dewpoint: 02° c.
Visibility: 3 Statute Miles.
Clouds: Broken 1100 ft.
Conditions: Mist.

KEUG 221216Z AUTO 00000KT 3SM R16R/2600VP6000FT BR BKN011 03/02 A2996 RMK AO2 T00330017


Wind - Calm.

 
 
jpsmedia.com for Web Design worldairports.se 2018   terms of use